Airfield :
LOGIN :

Register | Disclaimer

   EN    FR    IT 

 










Legend :    VFR   Marginal VFR   IFR   Intensive IFR   Very Intensive IFR
Visi :
Ceiling :
>= 8 km
>= 3000ft
5 to 8 km
1000 to 3000 ft
1500m to 5 km
500 to 1000 ft
800 to 1500m
200 to 500 ft
< 800m
< 200 ft
Symbols :   Thunderstorms  Fog  Heavy snow  Heavy precipitations  Wind > 20 kt
SIGMETs :     Misc.  Thunderstorms  Icing  Turbulence  Mountain Waves  Volcanic Ashes






- Airport Elevation : 177 ft
- IATA code : AYT


LTAI - Antalya

CURRENT METAR :
  • 290750Z 05005KT 010V130 9999 FEW025CB SCT030 17/04 Q1008 NOSIG RMK RWY18C VRB03KT RWY36R VRB02KT RWY18L VRB03KT

EXPIRED METARs :
  • 290720Z VRB03KT 9999 SCT030 18/05 Q1008 NOSIG RMK RWY18C 33006KT 270V050 RWY36R 32005KT 270V350 RWY18L 01007KT 340V040
  • 290650Z 32003KT 270V050 9999 SCT030 16/02 Q1009 NOSIG RMK RWY18C 35007KT 320V020 RWY36R 34006KT 310V020 RWY18L 34007KT 320V020
  • 290620Z 02001KT 9999 SCT030 16/04 Q1009 NOSIG RMK RWY18C 34007KT 300V020 RWY36R 35006KT 310V020 RWY18L VRB04KT
  • 290550Z 35003KT 290V050 9999 SCT030 15/04 Q1009 NOSIG RMK RWY18C 04003KT 350V070 RWY36R 35004KT 300V010 RWY18L 33006KT 310V010
  • 290520Z 36004KT 9999 SCT030 13/05 Q1009 NOSIG RMK RWY18C 35004KT 310V030 RWY36R 34006KT RWY18L 32006KT

TAF TAF LTAI
Valid from the 29 at 06:00 until the 30 at 06:00 UTC


290440Z 2906/3006 VRB02KT 9999 SCT030
BECMG 2908/2912 18012KT FEW020CB
BECMG 2916/2920 VRB02KT
TEMPO 2916/2920 -SHRA FEW020CB BKN030
BECMG 2920/2924 CAVOK



MET'MAP, your aeronautical weather chart ! - Copyright ORBIFLY December 2007 - Disclaimer

ORBIFLY MET'MAP TEAM :

Programming & Development : Alexandra Zaïnal
Concept & original design : Baudouin d'Aumeries
Assistance for programming : Marc-Olivier Méhu
Technical & hardware support : Manuel Goepfert

Contact : metmap@orbifly.com




SOURCES & CREDITS :

   NOAA